Time;durP1;ratioP1;P1;durP2;ratioP2;P2;SDS_P1;SDS_P2;PMS_P1;PMS_P2;Temp;Humidity;BMP_temperature;BMP_pressure;BME280_temperature;BME280_humidity;BME280_pressure;Samples;Min_cycle;Max_cycle;Signal;HPM_P1;HPM_P2
2022/12/15 00:38:58;;;;;;;31.90;16.30;;;-3.40;1.00;;;;;;5084588;28;20209;-77
2022/12/15 00:41:28;;;;;;;30.20;16.33;;;-3.40;1.00;;;;;;5070140;28;20638;-77
2022/12/15 00:44:04;;;;;;;31.85;16.23;;;-3.40;1.00;;;;;;5074965;28;20189;-77
2022/12/15 01:20:17;;;;;;;24.58;15.65;;;-3.90;1.00;;;;;;5062830;28;20244;-87
2022/12/15 01:23:34;;;;;;;24.50;14.90;;;-4.00;1.00;;;;;;5060347;28;20167;-87
2022/12/15 01:26:05;;;;;;;26.98;15.05;;;-4.00;1.00;;;;;;5058915;28;20182;-77
2022/12/15 01:28:34;;;;;;;25.38;14.95;;;-4.00;1.00;;;;;;5065580;28;20594;-77
2022/12/15 01:31:11;;;;;;;25.92;15.38;;;-4.00;1.00;;;;;;5064900;28;20543;-77
2022/12/15 01:33:42;;;;;;;32.03;15.73;;;-4.00;1.00;;;;;;5062347;28;20193;-77
2022/12/15 01:36:11;;;;;;;30.50;16.35;;;-4.00;1.00;;;;;;5068539;28;20186;-77
2022/12/15 01:38:36;;;;;;;26.25;15.45;;;-4.00;1.00;;;;;;5062320;28;20207;-77
2022/12/15 01:41:28;;;;;;;21.90;14.60;;;-4.00;1.00;;;;;;5059862;28;20179;-87
2022/12/15 01:44:46;;;;;;;27.45;16.13;;;-4.10;1.00;;;;;;5036665;28;20163;-87
2022/12/15 01:50:42;;;;;;;26.08;15.80;;;-4.10;1.00;;;;;;5055717;28;20194;-87
2022/12/15 01:56:39;;;;;;;25.58;14.93;;;-4.30;1.00;;;;;;5055459;28;20696;-77
2022/12/15 01:59:42;;;;;;;25.95;15.25;;;-4.30;1.00;;;;;;5060301;28;20195;-77
2022/12/15 02:02:20;;;;;;;24.52;15.35;;;-4.20;1.00;;;;;;5068977;28;20203;-77
2022/12/15 02:04:49;;;;;;;22.05;14.63;;;-4.20;1.00;;;;;;5054120;28;20183;-77
2022/12/15 02:07:17;;;;;;;23.63;14.63;;;-4.20;1.00;;;;;;5054193;28;20240;-77
2022/12/15 02:13:46;;;;;;;22.98;14.57;;;-4.20;1.00;;;;;;5071465;28;20198;-87
2022/12/15 02:16:41;;;;;;;24.65;15.40;;;-4.30;1.00;;;;;;5057917;28;20183;-87
2022/12/15 02:19:35;;;;;;;24.70;15.45;;;-4.30;1.00;;;;;;5054328;28;20241;-87
2022/12/15 02:22:46;;;;;;;21.58;14.27;;;-4.30;1.00;;;;;;5064640;28;20265;-87
2022/12/15 02:25:57;;;;;;;23.15;14.48;;;-4.30;1.00;;;;;;5065010;28;20214;-85
2022/12/15 02:28:45;;;;;;;22.52;14.45;;;-4.30;1.00;;;;;;5034396;28;20703;-87
2022/12/15 02:31:50;;;;;;;25.23;15.80;;;-4.20;1.00;;;;;;5039754;28;20547;-87
2022/12/15 02:34:25;;;;;;;26.95;15.27;;;-4.30;1.00;;;;;;5020362;28;20250;-87
2022/12/15 02:37:21;;;;;;;22.30;14.02;;;-4.30;1.00;;;;;;5042958;28;20179;-87
2022/12/15 02:39:47;;;;;;;25.38;14.65;;;-4.30;1.00;;;;;;5031603;28;20228;-87
2022/12/15 02:42:37;;;;;;;22.80;14.50;;;-4.30;1.00;;;;;;5040638;28;20195;-87
2022/12/15 02:45:07;;;;;;;22.48;13.90;;;-4.30;1.00;;;;;;5048570;28;20419;-87
2022/12/15 02:47:45;;;;;;;26.63;15.57;;;-4.30;1.00;;;;;;5052718;28;20198;-86
2022/12/15 02:51:04;;;;;;;21.88;14.07;;;-4.30;1.00;;;;;;5040560;28;20206;-87
2022/12/15 02:53:41;;;;;;;28.77;15.60;;;-4.30;1.00;;;;;;5041131;28;20188;-87
2022/12/15 02:56:26;;;;;;;23.40;14.93;;;-4.40;1.00;;;;;;5024627;28;20322;-78
2022/12/15 02:59:09;;;;;;;24.25;14.50;;;-4.40;1.00;;;;;;5036580;28;20710;-77
2022/12/15 03:01:51;;;;;;;23.10;13.70;;;-4.50;1.00;;;;;;5038810;28;20235;-77
2022/12/15 03:04:25;;;;;;;23.40;14.50;;;-4.60;1.00;;;;;;5042770;28;20172;-77
2022/12/15 03:06:59;;;;;;;25.58;15.38;;;-4.70;1.00;;;;;;5064404;28;20187;-77
2022/12/15 03:09:25;;;;;;;29.52;17.02;;;-4.70;1.00;;;;;;5065723;28;20239;-77
2022/12/15 03:11:51;;;;;;;24.40;15.03;;;-4.80;1.00;;;;;;5060073;28;20191;-77
2022/12/15 03:14:16;;;;;;;28.13;15.67;;;-4.80;1.00;;;;;;5071233;28;20225;-77
2022/12/15 03:16:47;;;;;;;25.87;14.53;;;-4.80;1.00;;;;;;5059808;28;20171;-77
2022/12/15 03:19:17;;;;;;;32.03;15.30;;;-4.90;1.00;;;;;;5060069;28;20245;-77
2022/12/15 03:21:43;;;;;;;26.05;15.40;;;-4.90;1.00;;;;;;5066918;28;20175;-77
2022/12/15 03:24:11;;;;;;;25.03;16.00;;;-5.10;1.00;;;;;;5066684;28;20209;-77
2022/12/15 03:26:42;;;;;;;23.42;16.13;;;-5.10;1.00;;;;;;5052903;28;20180;-77
2022/12/15 03:29:08;;;;;;;23.45;15.57;;;-5.20;1.00;;;;;;5053933;28;20180;-77
2022/12/15 03:31:41;;;;;;;29.23;16.65;;;-5.20;1.00;;;;;;5066235;28;20211;-77
2022/12/15 03:34:11;;;;;;;24.83;15.35;;;-5.20;1.00;;;;;;5044944;28;20726;-77
2022/12/15 03:36:41;;;;;;;25.20;16.40;;;-5.30;1.00;;;;;;5072223;28;20575;-77
2022/12/15 03:39:06;;;;;;;25.92;17.00;;;-5.30;1.00;;;;;;5046484;28;20180;-77
2022/12/15 03:41:41;;;;;;;25.27;16.10;;;-5.30;1.00;;;;;;5063073;28;20228;-78
2022/12/15 03:44:11;;;;;;;26.92;16.90;;;-5.30;1.00;;;;;;5059916;28;20178;-77
2022/12/15 03:46:36;;;;;;;29.45;16.67;;;-5.30;1.00;;;;;;5058906;28;20179;-77
2022/12/15 03:49:11;;;;;;;25.93;16.70;;;-5.30;1.00;;;;;;5059695;28;20186;-77
2022/12/15 03:51:41;;;;;;;30.10;17.05;;;-5.30;1.00;;;;;;5059353;28;20715;-77
2022/12/15 03:54:34;;;;;;;27.08;16.15;;;-5.20;1.00;;;;;;5042922;28;20720;-78
2022/12/15 03:57:11;;;;;;;30.20;16.30;;;-5.20;1.00;;;;;;5055155;28;20287;-87
2022/12/15 04:00:10;;;;;;;26.42;16.85;;;-5.30;1.00;;;;;;5065979;28;20658;-87
2022/12/15 04:03:10;;;;;;;26.67;16.70;;;-5.40;1.00;;;;;;5061094;28;20816;-87
2022/12/15 04:05:58;;;;;;;26.35;17.10;;;-5.30;1.00;;;;;;5053596;28;20246;-86
2022/12/15 04:08:41;;;;;;;32.85;16.63;;;-5.30;1.00;;;;;;5057916;28;20179;-87
2022/12/15 04:11:17;;;;;;;26.77;16.27;;;-5.30;1.00;;;;;;5058135;28;20179;-86
2022/12/15 04:13:42;;;;;;;27.65;17.08;;;-5.30;1.00;;;;;;5061358;28;20265;-77
2022/12/15 04:16:08;;;;;;;30.47;16.90;;;-5.20;1.00;;;;;;5054496;28;20266;-77
2022/12/15 04:18:41;;;;;;;35.58;19.27;;;-5.20;1.00;;;;;;5048978;28;20303;-76
2022/12/15 04:21:11;;;;;;;29.05;17.60;;;-5.10;1.00;;;;;;5052199;28;20175;-76
2022/12/15 05:33:04;;;;;;;28.67;18.08;;;-5.60;1.00;;;;;;5069403;28;20597;-86
2022/12/15 05:35:31;;;;;;;30.27;18.10;;;-5.60;1.00;;;;;;5056023;28;20206;-88
2022/12/15 05:38:13;;;;;;;34.45;17.90;;;-5.70;1.00;;;;;;5056629;28;20531;-86
2022/12/15 05:47:23;;;;;;;27.85;17.63;;;-5.50;1.00;;;;;;5064914;28;20214;-88
2022/12/15 05:56:55;;;;;;;30.70;18.50;;;-5.20;1.00;;;;;;5057294;28;20262;-87
2022/12/15 06:03:12;;;;;;;29.10;17.42;;;-5.00;1.00;;;;;;5051867;28;20197;-86
2022/12/15 06:05:43;;;;;;;30.15;18.90;;;-4.90;1.00;;;;;;5059334;28;20519;-88
2022/12/15 06:08:13;;;;;;;30.73;17.27;;;-4.80;1.00;;;;;;5054716;28;20164;-88
2022/12/15 06:14:01;;;;;;;30.35;18.15;;;-4.50;1.00;;;;;;5050921;28;20190;-77
2022/12/15 06:16:26;;;;;;;28.40;17.63;;;-4.40;1.00;;;;;;5055091;28;20182;-77
2022/12/15 06:18:56;;;;;;;32.50;18.23;;;-4.30;1.00;;;;;;5059109;28;20211;-75
2022/12/15 06:21:43;;;;;;;33.28;17.85;;;-4.20;1.00;;;;;;5054223;28;20650;-75
2022/12/15 06:24:09;;;;;;;30.25;18.70;;;-4.00;1.00;;;;;;5057952;28;20290;-75
2022/12/15 06:26:37;;;;;;;28.48;18.30;;;-3.90;1.00;;;;;;5069903;28;20258;-75
2022/12/15 06:29:49;;;;;;;37.95;20.17;;;-3.80;1.00;;;;;;5067229;28;20180;-87
2022/12/15 06:35:43;;;;;;;39.35;19.35;;;-3.60;1.00;;;;;;5066114;28;20264;-87
2022/12/15 06:38:14;;;;;;;37.53;20.85;;;-3.50;1.00;;;;;;5065574;28;20239;-87
2022/12/15 06:44:31;;;;;;;38.75;21.33;;;-3.30;1.00;;;;;;5068877;28;20194;-87
2022/12/15 06:47:49;;;;;;;44.17;23.80;;;-3.20;1.00;;;;;;5045230;28;20179;-87
2022/12/15 06:51:07;;;;;;;41.83;21.00;;;-3.00;1.00;;;;;;5037947;28;20195;-87
2022/12/15 06:53:52;;;;;;;39.65;23.30;;;-3.00;1.00;;;;;;5064560;28;20305;-87
2022/12/15 06:56:34;;;;;;;40.78;22.83;;;-2.90;1.00;;;;;;5053470;28;20233;-87
2022/12/15 06:59:03;;;;;;;43.15;23.42;;;-2.80;1.00;;;;;;5054834;28;21118;-76
2022/12/15 07:01:32;;;;;;;40.50;22.17;;;-2.70;1.00;;;;;;5054232;28;20179;-76
2022/12/15 07:04:20;;;;;;;36.85;21.67;;;-2.70;1.00;;;;;;5058729;28;20187;-76
2022/12/15 07:06:47;;;;;;;41.92;22.48;;;-2.50;1.00;;;;;;5067310;28;20269;-76
2022/12/15 07:09:17;;;;;;;42.22;20.95;;;-2.50;1.00;;;;;;5054064;28;20175;-76
2022/12/15 07:11:50;;;;;;;40.47;20.95;;;-2.40;1.00;;;;;;5060258;28;20182;-76
2022/12/15 07:14:43;;;;;;;37.17;19.60;;;-2.30;1.00;;;;;;5063291;28;20183;-88
2022/12/15 07:18:01;;;;;;;36.90;19.83;;;-2.20;1.00;;;;;;5048044;28;20294;-88
2022/12/15 07:20:49;;;;;;;33.95;19.27;;;-2.20;1.00;;;;;;5063184;28;20223;-88
2022/12/15 07:23:25;;;;;;;35.60;19.33;;;-2.10;1.00;;;;;;5042445;28;20188;-88
2022/12/15 07:26:19;;;;;;;38.47;19.25;;;-2.00;1.00;;;;;;5067737;28;20739;-88
2022/12/15 07:29:19;;;;;;;41.33;21.30;;;-2.00;1.00;;;;;;5064339;28;20663;-88
2022/12/15 07:31:49;;;;;;;38.63;19.02;;;-1.90;1.00;;;;;;5054163;28;20190;-88
2022/12/15 07:34:19;;;;;;;32.80;17.73;;;-1.90;1.00;;;;;;5065472;28;20183;-88
2022/12/15 07:36:49;;;;;;;38.35;19.60;;;-1.90;1.00;;;;;;5062227;28;20665;-88
2022/12/15 07:39:20;;;;;;;33.15;17.10;;;-1.80;1.00;;;;;;5073800;28;20546;-88
2022/12/15 07:41:49;;;;;;;33.92;18.10;;;-1.80;1.00;;;;;;5059763;28;20187;-88
2022/12/15 07:44:25;;;;;;;32.75;16.67;;;-1.70;1.00;;;;;;5066503;28;20192;-88
2022/12/15 07:46:51;;;;;;;31.38;17.58;;;-1.80;1.00;;;;;;5066602;28;20227;-88
2022/12/15 07:49:25;;;;;;;34.63;17.33;;;-1.70;1.00;;;;;;5051352;28;20266;-88
2022/12/15 07:51:57;;;;;;;35.25;18.00;;;-1.70;1.00;;;;;;5063949;28;20174;-88
2022/12/15 07:54:25;;;;;;;32.40;17.90;;;-1.60;1.00;;;;;;5059114;28;20182;-88
2022/12/15 07:56:55;;;;;;;35.92;17.55;;;-1.50;1.00;;;;;;5061638;28;20175;-88
2022/12/15 07:59:25;;;;;;;34.20;18.00;;;-1.50;1.00;;;;;;5060674;28;20222;-88
2022/12/15 08:01:52;;;;;;;34.47;16.60;;;-1.40;1.00;;;;;;5061100;28;20229;-75
2022/12/15 08:04:18;;;;;;;33.88;18.15;;;-1.40;1.00;;;;;;5066804;28;20226;-76
2022/12/15 08:06:50;;;;;;;32.60;17.10;;;-1.40;1.00;;;;;;5051912;28;20175;-76
2022/12/15 08:09:20;;;;;;;32.22;16.08;;;-1.30;1.00;;;;;;5054813;28;20441;-76
2022/12/15 08:11:45;;;;;;;29.85;16.45;;;-1.40;1.00;;;;;;5058806;28;20173;-77
2022/12/15 08:14:19;;;;;;;34.47;18.50;;;-1.40;1.00;;;;;;5069049;28;20228;-76
2022/12/15 08:16:55;;;;;;;34.17;17.45;;;-1.30;1.00;;;;;;5062150;28;20814;-77
2022/12/15 08:19:21;;;;;;;38.22;19.00;;;-1.30;1.00;;;;;;5050865;28;20650;-76
2022/12/15 08:21:49;;;;;;;36.07;18.33;;;-1.30;1.00;;;;;;5064661;28;20181;-76
2022/12/15 08:24:19;;;;;;;33.22;16.90;;;-1.20;1.00;;;;;;5059690;28;20794;-77
2022/12/15 08:26:46;;;;;;;34.53;17.77;;;-1.20;1.00;;;;;;5071933;28;20179;-76
2022/12/15 08:29:19;;;;;;;36.65;18.38;;;-1.10;1.00;;;;;;5053225;28;20233;-76
2022/12/15 08:31:49;;;;;;;32.70;17.15;;;-1.00;1.00;;;;;;5053834;28;20191;-76
2022/12/15 08:34:20;;;;;;;30.48;16.40;;;-1.00;1.00;;;;;;5069645;28;20182;-76
2022/12/15 08:36:49;;;;;;;35.05;17.02;;;-0.90;1.00;;;;;;5059876;28;20188;-76
2022/12/15 08:39:19;;;;;;;31.02;16.60;;;-1.00;1.00;;;;;;5066522;28;20175;-77
2022/12/15 08:41:49;;;;;;;30.48;16.35;;;-1.00;1.00;;;;;;5053818;28;20179;-76
2022/12/15 08:44:16;;;;;;;32.03;16.80;;;-0.90;1.00;;;;;;5055934;28;20189;-76
2022/12/15 08:46:43;;;;;;;31.23;16.55;;;-0.80;1.00;;;;;;5061550;28;20194;-77
2022/12/15 08:49:09;;;;;;;36.03;17.92;;;-0.90;1.00;;;;;;5058982;28;20191;-76
2022/12/15 08:51:35;;;;;;;33.67;17.53;;;-0.90;1.00;;;;;;5064562;28;20504;-76
2022/12/15 08:54:20;;;;;;;34.00;17.80;;;-1.00;1.00;;;;;;5050408;28;20190;-75
2022/12/15 08:56:49;;;;;;;30.15;16.55;;;-0.90;1.00;;;;;;5057479;28;20189;-76
2022/12/15 08:59:19;;;;;;;34.00;18.00;;;-0.90;1.00;;;;;;5062967;28;20183;-76
2022/12/15 09:01:49;;;;;;;34.85;18.80;;;-1.00;1.00;;;;;;5060682;28;20187;-76
2022/12/15 09:04:19;;;;;;;32.60;17.08;;;-0.90;1.00;;;;;;5067410;28;20263;-76
2022/12/15 09:06:49;;;;;;;36.28;18.67;;;-0.90;1.00;;;;;;5055184;28;20706;-76
2022/12/15 09:09:25;;;;;;;31.38;17.42;;;-0.80;1.00;;;;;;5070101;28;20194;-77
2022/12/15 09:12:01;;;;;;;37.60;18.55;;;-0.80;1.00;;;;;;5055049;28;20526;-75
2022/12/15 09:14:27;;;;;;;30.17;17.63;;;-0.80;1.00;;;;;;5056348;28;20167;-76
2022/12/15 09:17:14;;;;;;;31.50;17.20;;;-1.00;1.00;;;;;;5069416;28;20224;-76
2022/12/15 09:19:40;;;;;;;34.55;19.10;;;-1.00;1.00;;;;;;5058633;28;20492;-76
2022/12/15 09:22:07;;;;;;;33.00;18.30;;;-1.00;1.00;;;;;;5075060;28;20214;-76
2022/12/15 09:24:33;;;;;;;32.63;17.83;;;-1.00;1.00;;;;;;5065816;28;20180;-76
2022/12/15 09:27:02;;;;;;;35.40;18.83;;;-1.00;1.00;;;;;;5069616;28;20229;-76
2022/12/15 09:30:19;;;;;;;32.25;17.33;;;-1.00;1.00;;;;;;5056340;28;20164;-76
2022/12/15 09:32:44;;;;;;;40.58;18.35;;;-0.90;1.00;;;;;;5054429;28;20172;-76
2022/12/15 09:35:19;;;;;;;36.23;17.57;;;-0.60;1.00;;;;;;5056548;28;20210;-76
2022/12/15 09:37:49;;;;;;;29.73;16.80;;;-0.50;1.00;;;;;;5074975;28;20586;-76
2022/12/15 09:40:25;;;;;;;30.10;16.75;;;-0.30;1.00;;;;;;5054356;28;20647;-76
2022/12/15 09:42:55;;;;;;;31.35;17.63;;;-0.20;1.00;;;;;;5058914;28;20179;-76
2022/12/15 09:45:25;;;;;;;32.72;17.25;;;-0.10;1.00;;;;;;5054502;28;20699;-76
2022/12/15 09:48:17;;;;;;;33.45;17.52;;;-0.10;1.00;;;;;;5054585;28;20710;-76
2022/12/15 09:50:46;;;;;;;36.90;18.25;;;0.10;1.00;;;;;;5058504;28;20276;-76
2022/12/15 09:53:15;;;;;;;26.70;15.90;;;0.10;1.00;;;;;;5055435;28;20256;-76
2022/12/15 09:55:51;;;;;;;29.25;16.67;;;0.20;1.00;;;;;;5055087;28;20267;-76
2022/12/15 09:58:39;;;;;;;30.05;16.50;;;0.20;1.00;;;;;;5055494;28;20199;-76
2022/12/15 10:01:28;;;;;;;30.55;17.10;;;0.20;1.00;;;;;;5061598;28;20179;-75
2022/12/15 10:04:25;;;;;;;31.98;17.42;;;0.30;1.00;;;;;;5036210;28;20612;-88
2022/12/15 10:07:20;;;;;;;36.25;17.70;;;0.20;1.00;;;;;;5053662;28;20183;-88
2022/12/15 10:10:37;;;;;;;33.45;16.80;;;0.20;1.00;;;;;;5036326;28;20247;-88
2022/12/15 10:13:23;;;;;;;31.05;15.93;;;0.20;1.00;;;;;;5061099;28;20266;-88
2022/12/15 10:16:01;;;;;;;33.80;17.48;;;0.00;1.00;;;;;;5072088;28;20202;-88
2022/12/15 10:21:49;;;;;;;31.00;15.85;;;-0.10;1.00;;;;;;5059776;28;20210;-88
2022/12/15 10:24:29;;;;;;;30.92;16.58;;;0.00;1.00;;;;;;5055599;28;20259;-88
2022/12/15 10:30:44;;;;;;;35.55;19.65;;;0.10;1.00;;;;;;5061932;28;20261;-88
2022/12/15 10:33:21;;;;;;;31.40;16.92;;;0.10;1.00;;;;;;5062475;28;20175;-88
2022/12/15 10:35:49;;;;;;;32.60;17.23;;;0.00;1.00;;;;;;5051879;28;20671;-77
2022/12/15 10:38:30;;;;;;;29.02;17.05;;;0.10;1.00;;;;;;5067929;28;20198;-76
2022/12/15 10:41:22;;;;;;;30.15;16.00;;;0.20;1.00;;;;;;5074703;28;20638;-76
2022/12/15 10:43:51;;;;;;;34.58;17.35;;;0.20;1.00;;;;;;5066949;28;20180;-76
2022/12/15 10:46:26;;;;;;;33.65;16.88;;;0.20;1.00;;;;;;5067634;28;20265;-77
2022/12/15 10:49:27;;;;;;;30.80;16.15;;;0.30;1.00;;;;;;5053336;28;20194;-76
2022/12/15 10:52:01;;;;;;;28.48;16.45;;;0.10;1.00;;;;;;5039834;28;20187;-76
2022/12/15 10:54:44;;;;;;;32.35;17.35;;;0.20;1.00;;;;;;5019871;28;20647;-76
2022/12/15 10:57:37;;;;;;;28.70;16.25;;;0.30;1.00;;;;;;5032641;28;20558;-75
2022/12/15 11:00:34;;;;;;;33.42;17.05;;;0.40;1.00;;;;;;5032295;28;20259;-76
2022/12/15 11:03:28;;;;;;;29.63;17.33;;;0.50;1.00;;;;;;4972707;28;20233;-76
2022/12/15 11:06:16;;;;;;;35.95;17.20;;;0.70;1.00;;;;;;4961688;28;20198;-88
2022/12/15 11:09:25;;;;;;;33.42;17.20;;;0.70;1.00;;;;;;4974301;28;20708;-87
2022/12/15 11:14:49;;;;;;;31.35;17.50;;;0.70;1.00;;;;;;4980168;28;20201;-88
2022/12/15 11:18:10;;;;;;;31.88;17.15;;;0.70;1.00;;;;;;4974057;28;20255;-88
2022/12/15 11:21:04;;;;;;;30.67;16.33;;;0.70;1.00;;;;;;4973627;28;20213;-76
2022/12/15 11:24:00;;;;;;;31.23;16.42;;;0.90;1.00;;;;;;4919843;29;20188;-76
2022/12/15 11:26:47;;;;;;;28.75;16.67;;;1.10;1.00;;;;;;4911110;29;20240;-76
2022/12/15 11:29:43;;;;;;;31.52;16.38;;;1.10;1.00;;;;;;4899832;29;20192;-76
2022/12/15 11:32:24;;;;;;;33.20;16.00;;;1.10;1.00;;;;;;4924655;29;20199;-76
2022/12/15 11:41:39;;;;;;;34.28;17.00;;;1.20;1.00;;;;;;4971664;28;20251;-87
2022/12/15 11:50:57;;;;;;;37.83;18.10;;;1.20;1.00;;;;;;4975001;28;20205;-76
2022/12/15 11:53:49;;;;;;;33.25;17.52;;;1.30;1.00;;;;;;4985307;28;20312;-75
2022/12/15 11:56:44;;;;;;;33.05;16.45;;;1.30;1.00;;;;;;4971791;28;20193;-76
2022/12/15 11:59:32;;;;;;;31.17;16.33;;;1.30;1.00;;;;;;4959582;28;20205;-76
2022/12/15 12:02:13;;;;;;;33.10;16.88;;;1.30;1.00;;;;;;5063636;28;20172;-75
2022/12/15 12:05:01;;;;;;;36.75;17.52;;;1.30;1.00;;;;;;5066078;28;20214;-76
2022/12/15 12:07:51;;;;;;;31.05;16.02;;;1.10;1.00;;;;;;5033587;28;20176;-76
2022/12/15 12:10:30;;;;;;;33.53;16.95;;;1.10;1.00;;;;;;5067586;28;20230;-76
2022/12/15 12:13:29;;;;;;;33.83;16.52;;;1.00;1.00;;;;;;5055294;28;20262;-76
2022/12/15 12:16:10;;;;;;;37.42;18.10;;;1.00;1.00;;;;;;5047526;28;20184;-77
2022/12/15 12:18:45;;;;;;;32.47;16.77;;;0.90;1.00;;;;;;5041281;28;20723;-77
2022/12/15 12:21:14;;;;;;;36.45;17.77;;;1.00;1.00;;;;;;5067293;28;20210;-76
2022/12/15 12:23:57;;;;;;;32.65;17.02;;;1.00;1.00;;;;;;5053675;28;20159;-77
2022/12/15 12:26:40;;;;;;;40.30;18.65;;;1.00;1.00;;;;;;5065363;28;20272;-76
2022/12/15 12:29:34;;;;;;;34.15;17.98;;;1.00;1.00;;;;;;5043576;28;20544;-77
2022/12/15 12:32:06;;;;;;;37.13;18.23;;;1.10;1.00;;;;;;5053654;28;20193;-76
2022/12/15 12:35:00;;;;;;;31.67;16.52;;;1.10;1.00;;;;;;5049754;28;20187;-76
2022/12/15 12:37:54;;;;;;;34.03;17.00;;;1.20;1.00;;;;;;5050711;28;20211;-76
2022/12/15 12:40:53;;;;;;;31.10;16.20;;;1.10;1.00;;;;;;5064366;28;20214;-77
2022/12/15 12:43:40;;;;;;;33.20;17.30;;;1.10;1.00;;;;;;5046225;28;20265;-76
2022/12/15 12:46:31;;;;;;;38.53;17.70;;;1.00;1.00;;;;;;5058241;28;20536;-76
2022/12/15 12:49:23;;;;;;;33.83;16.85;;;0.90;1.00;;;;;;5053201;28;20567;-76
2022/12/15 12:51:59;;;;;;;32.28;16.25;;;0.90;1.00;;;;;;5051742;28;20178;-88
2022/12/15 12:54:43;;;;;;;34.58;17.33;;;0.90;1.00;;;;;;5059446;28;20183;-88
2022/12/15 13:01:13;;;;;;;31.98;16.35;;;0.80;1.00;;;;;;5053038;28;20187;-88
2022/12/15 13:04:11;;;;;;;34.67;17.52;;;0.70;1.00;;;;;;5038205;28;20199;-87
2022/12/15 13:06:43;;;;;;;36.92;17.58;;;0.60;1.00;;;;;;5047270;28;20194;-87
2022/12/15 13:09:42;;;;;;;37.17;17.23;;;0.50;1.00;;;;;;5055801;28;20191;-88
2022/12/15 13:15:45;;;;;;;34.10;16.80;;;0.60;1.00;;;;;;5063361;28;20193;-87
2022/12/15 13:18:21;;;;;;;34.47;16.70;;;0.60;1.00;;;;;;5053072;28;20226;-87
2022/12/15 13:20:48;;;;;;;31.20;15.82;;;0.50;1.00;;;;;;5038484;28;20240;-77
2022/12/15 13:23:20;;;;;;;31.45;15.43;;;0.50;1.00;;;;;;5059298;28;20724;-76
2022/12/15 13:25:52;;;;;;;35.55;15.82;;;0.50;1.00;;;;;;5067170;28;20190;-76
2022/12/15 13:28:38;;;;;;;32.55;17.20;;;0.50;1.00;;;;;;5050733;28;20184;-76
2022/12/15 13:31:20;;;;;;;33.50;16.88;;;0.50;1.00;;;;;;5041421;28;21113;-76
2022/12/15 13:33:50;;;;;;;30.88;16.15;;;0.40;1.00;;;;;;5062845;28;20241;-76
2022/12/15 13:36:43;;;;;;;31.80;16.95;;;0.40;1.00;;;;;;5064181;28;20195;-77
2022/12/15 13:39:16;;;;;;;34.92;17.25;;;0.40;1.00;;;;;;5060533;28;20210;-76
2022/12/15 13:41:56;;;;;;;35.05;16.55;;;0.40;1.00;;;;;;5054236;28;20164;-76
2022/12/15 13:44:39;;;;;;;34.45;17.55;;;0.50;1.00;;;;;;5056154;28;20175;-76
2022/12/15 13:47:29;;;;;;;29.58;16.48;;;0.50;1.00;;;;;;5056402;28;20179;-76
2022/12/15 13:50:14;;;;;;;30.60;15.70;;;0.60;1.00;;;;;;5069421;28;20174;-76
2022/12/15 13:52:54;;;;;;;35.15;16.20;;;0.60;1.00;;;;;;5047018;28;20300;-77
2022/12/15 13:55:25;;;;;;;33.90;17.13;;;0.60;1.00;;;;;;5061204;28;20211;-76
2022/12/15 13:58:08;;;;;;;33.13;17.10;;;0.60;1.00;;;;;;5060926;28;20578;-76
2022/12/15 14:00:46;;;;;;;30.45;15.00;;;0.50;1.00;;;;;;5061442;28;20254;-76
2022/12/15 14:03:12;;;;;;;29.80;15.60;;;0.40;1.00;;;;;;5061009;28;20194;-76
2022/12/15 14:05:41;;;;;;;34.63;17.20;;;0.30;1.00;;;;;;5067804;28;20175;-76
2022/12/15 14:08:14;;;;;;;37.05;17.23;;;0.10;1.00;;;;;;5068636;28;20262;-76
2022/12/15 14:10:47;;;;;;;31.38;15.55;;;0.00;1.00;;;;;;5035574;28;20170;-75
2022/12/15 14:13:19;;;;;;;28.52;15.25;;;-0.10;1.00;;;;;;5074136;28;20591;-76
2022/12/15 14:15:58;;;;;;;30.48;14.98;;;-0.10;1.00;;;;;;5066351;28;20265;-76
2022/12/15 14:18:33;;;;;;;30.20;15.63;;;-0.20;1.00;;;;;;5037964;28;20681;-78
2022/12/15 14:21:21;;;;;;;35.70;15.20;;;-0.30;1.00;;;;;;5036486;28;20199;-79
2022/12/15 14:24:19;;;;;;;34.65;16.27;;;-0.40;1.00;;;;;;5055724;28;20187;-80
2022/12/15 14:26:56;;;;;;;33.92;14.90;;;-0.70;1.00;;;;;;5070506;28;20197;-80
2022/12/15 14:29:26;;;;;;;29.95;16.00;;;-0.80;1.00;;;;;;5058399;28;20175;-82
2022/12/15 14:31:56;;;;;;;31.45;15.48;;;-1.00;1.00;;;;;;5065380;28;20643;-81
2022/12/15 14:34:32;;;;;;;31.83;15.80;;;-1.10;1.00;;;;;;5069421;28;20199;-82
2022/12/15 14:37:02;;;;;;;37.05;16.13;;;-1.10;1.00;;;;;;5052989;28;20272;-73
2022/12/15 14:39:43;;;;;;;37.03;15.65;;;-1.10;1.00;;;;;;5054411;28;20202;-74
2022/12/15 14:42:19;;;;;;;34.28;16.77;;;-1.20;1.00;;;;;;5053591;28;20211;-74
2022/12/15 14:44:51;;;;;;;36.75;16.90;;;-1.20;1.00;;;;;;5054739;28;20232;-74
2022/12/15 14:47:20;;;;;;;36.30;17.38;;;-1.30;1.00;;;;;;5053850;28;20257;-74
2022/12/15 14:50:08;;;;;;;31.55;16.42;;;-1.30;1.00;;;;;;5065897;28;20172;-74
2022/12/15 14:52:40;;;;;;;34.70;17.42;;;-1.30;1.00;;;;;;5053190;28;20196;-74
2022/12/15 14:55:34;;;;;;;38.03;16.55;;;-1.30;1.00;;;;;;5048567;28;20172;-74
2022/12/15 14:58:38;;;;;;;36.30;17.48;;;-1.40;1.00;;;;;;5049112;28;20725;-74
2022/12/15 15:01:41;;;;;;;42.83;18.48;;;-1.40;1.00;;;;;;5029670;28;20839;-74
2022/12/15 15:04:29;;;;;;;35.83;16.63;;;-1.40;1.00;;;;;;5011636;28;20192;-76
2022/12/15 15:07:05;;;;;;;35.85;16.23;;;-1.50;1.00;;;;;;5042484;28;20184;-77
2022/12/15 15:09:38;;;;;;;37.67;17.33;;;-1.60;1.00;;;;;;5034781;28;20230;-69
2022/12/15 15:12:22;;;;;;;35.05;16.27;;;-1.70;1.00;;;;;;5026804;28;20226;-72
2022/12/15 15:15:07;;;;;;;36.58;17.50;;;-1.80;1.00;;;;;;5028389;28;20191;-74
2022/12/15 15:17:57;;;;;;;39.40;18.20;;;-1.90;1.00;;;;;;5040606;28;20273;-82
2022/12/15 15:20:30;;;;;;;34.97;17.65;;;-2.00;1.00;;;;;;5032142;28;20163;-81
2022/12/15 15:23:09;;;;;;;40.00;18.60;;;-2.10;1.00;;;;;;5045312;28;20622;-75
2022/12/15 15:26:04;;;;;;;38.50;18.02;;;-2.20;1.00;;;;;;5015852;28;20184;-78
2022/12/15 15:28:44;;;;;;;38.83;18.63;;;-2.20;1.00;;;;;;4945804;29;20705;-78
2022/12/15 15:31:28;;;;;;;42.72;20.00;;;-2.20;1.00;;;;;;4946574;29;20576;-79
2022/12/15 15:34:08;;;;;;;37.45;18.45;;;-2.20;1.00;;;;;;4952691;29;20195;-79
2022/12/15 15:36:38;;;;;;;39.80;19.40;;;-2.40;1.00;;;;;;4972003;28;20189;-80
2022/12/15 15:39:22;;;;;;;33.65;18.30;;;-2.50;1.00;;;;;;4976740;28;20584;-83
2022/12/15 15:42:11;;;;;;;40.35;19.80;;;-2.50;1.00;;;;;;4991274;28;20161;-83
2022/12/15 15:44:40;;;;;;;40.50;19.38;;;-2.60;1.00;;;;;;4983808;28;20193;-83
2022/12/15 15:47:06;;;;;;;44.58;20.08;;;-2.70;1.00;;;;;;4992865;28;20186;-84
2022/12/15 15:49:38;;;;;;;37.88;18.15;;;-2.80;1.00;;;;;;4999486;28;20252;-83
2022/12/15 15:52:43;;;;;;;39.47;20.17;;;-2.90;1.00;;;;;;4999142;28;20182;-83
2022/12/15 15:55:46;;;;;;;36.95;18.90;;;-2.90;1.00;;;;;;4978919;28;20228;-83
2022/12/15 15:58:14;;;;;;;36.90;19.23;;;-2.90;1.00;;;;;;4985021;28;20220;-83
2022/12/15 16:00:44;;;;;;;40.95;20.15;;;-3.00;1.00;;;;;;5010086;28;20185;-84
2022/12/15 16:03:14;;;;;;;40.00;20.23;;;-3.00;1.00;;;;;;4990621;28;20189;-83
2022/12/15 16:05:44;;;;;;;38.10;19.30;;;-3.10;1.00;;;;;;5025576;28;20187;-83
2022/12/15 16:08:45;;;;;;;40.63;20.33;;;-3.10;1.00;;;;;;5053761;28;20526;-83
2022/12/15 16:11:26;;;;;;;37.42;18.58;;;-3.10;1.00;;;;;;5048437;28;20330;-83
2022/12/15 16:14:14;;;;;;;41.17;20.80;;;-3.20;1.00;;;;;;5032394;28;20191;-84
2022/12/15 16:16:44;;;;;;;40.50;21.17;;;-3.20;1.00;;;;;;5046688;28;20180;-83
2022/12/15 16:19:14;;;;;;;39.75;20.77;;;-3.20;1.00;;;;;;5053367;28;20465;-84
2022/12/15 16:21:56;;;;;;;47.00;20.98;;;-3.30;1.00;;;;;;5066524;28;20171;-84
2022/12/15 16:24:38;;;;;;;40.00;21.02;;;-3.30;1.00;;;;;;5033426;28;20192;-76
2022/12/15 16:27:04;;;;;;;38.20;20.55;;;-3.30;1.00;;;;;;5055716;28;20174;-77
2022/12/15 16:29:32;;;;;;;45.80;22.87;;;-3.30;1.00;;;;;;5057593;28;20245;-78
2022/12/15 16:32:20;;;;;;;43.22;20.80;;;-3.30;1.00;;;;;;5059301;28;20186;-77
2022/12/15 16:35:02;;;;;;;38.97;19.88;;;-3.40;1.00;;;;;;5057862;28;20232;-77
2022/12/15 16:37:45;;;;;;;44.05;20.83;;;-3.40;1.00;;;;;;5047997;28;20290;-77
2022/12/15 16:40:16;;;;;;;41.92;20.52;;;-3.50;1.00;;;;;;5073337;28;20147;-77
2022/12/15 16:42:59;;;;;;;38.15;19.83;;;-3.50;1.00;;;;;;5054171;28;20179;-77
2022/12/15 16:45:32;;;;;;;42.67;21.15;;;-3.50;1.00;;;;;;5045352;28;20175;-77
2022/12/15 16:48:08;;;;;;;40.35;20.95;;;-3.50;1.00;;;;;;5050684;28;20270;-76
2022/12/15 16:50:47;;;;;;;39.78;19.67;;;-3.50;1.00;;;;;;5053995;28;20269;-77
2022/12/15 16:53:16;;;;;;;42.75;20.70;;;-3.50;1.00;;;;;;5059827;28;20203;-84
2022/12/15 16:56:14;;;;;;;40.33;20.35;;;-3.40;1.00;;;;;;5053663;28;20186;-84
2022/12/15 16:59:14;;;;;;;42.40;19.88;;;-3.40;1.00;;;;;;5053364;28;20207;-84
2022/12/15 17:01:40;;;;;;;40.67;20.77;;;-3.40;1.00;;;;;;5073937;28;20587;-83
2022/12/15 17:04:43;;;;;;;41.42;21.48;;;-3.50;1.00;;;;;;5064188;28;20171;-84
2022/12/15 17:07:14;;;;;;;44.72;21.85;;;-3.40;1.00;;;;;;5057915;28;20175;-84
2022/12/15 17:09:44;;;;;;;40.05;20.23;;;-3.40;1.00;;;;;;5056025;28;20201;-77
2022/12/15 17:12:16;;;;;;;39.33;20.23;;;-3.40;1.00;;;;;;5068706;28;20236;-77